createdAt,value
2019-02-28T00:00:22.825Z,6.07
2019-02-28T00:01:22.806Z,6.00
2019-02-28T00:02:22.794Z,6.09
2019-02-28T00:03:26.187Z,6.14
2019-02-28T00:04:22.774Z,6.03
2019-02-28T00:05:22.770Z,6.16
2019-02-28T00:06:22.752Z,6.13
2019-02-28T00:07:22.740Z,6.19
2019-02-28T00:08:22.729Z,6.18
2019-02-28T00:09:25.682Z,6.22
2019-02-28T00:10:22.719Z,6.18
2019-02-28T00:11:22.697Z,6.13
2019-02-28T00:12:22.686Z,6.13
2019-02-28T00:13:22.676Z,6.10
2019-02-28T00:14:22.666Z,6.19
2019-02-28T00:15:22.662Z,6.13
2019-02-28T00:16:22.654Z,6.10
2019-02-28T00:17:22.633Z,6.04
2019-02-28T00:18:22.624Z,6.01
2019-02-28T00:19:23.973Z,5.95
2019-02-28T00:20:22.610Z,5.95
2019-02-28T00:21:22.590Z,5.95
2019-02-28T00:22:22.579Z,6.01
2019-02-28T00:23:22.839Z,5.91
2019-02-28T00:24:22.557Z,5.88
2019-02-28T00:25:22.555Z,5.89
2019-02-28T00:26:22.537Z,5.91
2019-02-28T00:27:22.526Z,5.98
2019-02-28T00:28:23.076Z,5.88
2019-02-28T00:29:22.507Z,5.86
2019-02-28T00:30:22.503Z,5.82
2019-02-28T00:31:22.482Z,5.82
2019-02-28T00:32:24.809Z,5.82
2019-02-28T00:33:22.462Z,5.88
2019-02-28T00:34:22.453Z,5.89
2019-02-28T00:35:22.446Z,5.85
2019-02-28T00:36:22.428Z,5.81
2019-02-28T00:37:24.626Z,5.81
2019-02-28T00:38:22.405Z,5.75
2019-02-28T00:39:22.403Z,5.82
2019-02-28T00:40:22.412Z,5.82
2019-02-28T00:41:22.374Z,5.78
2019-02-28T00:42:22.363Z,5.83
2019-02-28T00:43:25.076Z,5.78
2019-02-28T00:44:22.342Z,5.81
2019-02-28T00:45:22.330Z,5.86
2019-02-28T00:46:22.330Z,5.91
2019-02-28T00:47:22.309Z,5.92
2019-02-28T00:48:22.391Z,6.01
2019-02-28T00:49:24.516Z,5.96
2019-02-28T00:50:22.276Z,5.85
2019-02-28T00:51:22.280Z,5.89
2019-02-28T00:52:22.260Z,5.83
2019-02-28T00:53:22.246Z,5.92
2019-02-28T00:54:22.233Z,5.93
2019-02-28T00:55:22.224Z,5.82
2019-02-28T00:56:22.221Z,5.91
2019-02-28T00:57:23.624Z,5.89
2019-02-28T00:58:22.193Z,5.86
2019-02-28T00:59:22.180Z,6.00
2019-02-28T01:00:22.168Z,6.00
2019-02-28T01:01:22.168Z,6.06
2019-02-28T01:02:22.148Z,6.09
2019-02-28T01:03:26.471Z,5.98
2019-02-28T01:04:23.123Z,6.01
2019-02-28T01:05:22.115Z,5.96
2019-02-28T01:06:22.113Z,5.96
2019-02-28T01:07:22.094Z,5.95
2019-02-28T01:08:22.773Z,5.95
2019-02-28T01:09:22.072Z,5.95
2019-02-28T01:10:22.061Z,5.95
2019-02-28T01:11:22.058Z,6.01
2019-02-28T01:12:22.040Z,6.00
2019-02-28T01:13:22.029Z,5.96
2019-02-28T01:14:22.018Z,6.00
2019-02-28T01:15:22.008Z,6.00
2019-02-28T01:16:22.005Z,6.01
2019-02-28T01:17:24.106Z,5.98
2019-02-28T01:18:21.975Z,6.01
2019-02-28T01:19:21.964Z,6.04
2019-02-28T01:20:21.954Z,5.98
2019-02-28T01:21:23.935Z,6.04
2019-02-28T01:22:21.933Z,6.00
2019-02-28T01:23:21.925Z,6.01
2019-02-28T01:24:21.912Z,5.96
2019-02-28T01:25:21.900Z,6.00
2019-02-28T01:26:21.903Z,6.11
2019-02-28T01:27:21.892Z,6.01
2019-02-28T01:28:23.357Z,6.03
2019-02-28T01:29:21.860Z,6.03
2019-02-28T01:30:21.846Z,5.93
2019-02-28T01:31:21.845Z,6.01
2019-02-28T01:32:21.830Z,6.01
2019-02-28T01:33:24.851Z,6.04
2019-02-28T01:34:21.804Z,6.04
2019-02-28T01:35:21.793Z,6.01
2019-02-28T01:36:21.790Z,5.98
2019-02-28T01:37:22.002Z,6.01
2019-02-28T01:38:23.993Z,6.10
2019-02-28T01:39:21.751Z,6.03
2019-02-28T01:40:21.739Z,6.16
2019-02-28T01:41:21.737Z,6.14
2019-02-28T01:42:21.717Z,6.21
2019-02-28T01:43:21.706Z,6.22
2019-02-28T01:44:21.698Z,6.35
2019-02-28T01:45:21.687Z,6.38
2019-02-28T01:46:21.682Z,6.35
2019-02-28T01:47:21.664Z,6.36
2019-02-28T01:48:22.626Z,6.33
2019-02-28T01:49:21.644Z,6.36
2019-02-28T01:50:21.632Z,6.33
2019-02-28T01:51:21.628Z,6.36
2019-02-28T01:52:21.613Z,6.32
2019-02-28T01:53:21.598Z,6.35
2019-02-28T01:54:21.588Z,6.40
2019-02-28T01:55:21.633Z,6.44
2019-02-28T01:56:21.574Z,6.48
2019-02-28T01:57:21.556Z,6.51
2019-02-28T01:58:21.547Z,6.53
2019-02-28T01:59:22.224Z,6.50
2019-02-28T02:00:23.811Z,6.53
2019-02-28T02:01:21.523Z,6.59
2019-02-28T02:02:21.507Z,6.59
2019-02-28T02:03:21.491Z,6.53
2019-02-28T02:04:21.481Z,6.47
2019-02-28T02:05:21.470Z,6.51
2019-02-28T02:06:22.481Z,6.56
2019-02-28T02:07:21.452Z,6.54
2019-02-28T02:08:21.437Z,6.47
2019-02-28T02:09:21.426Z,6.48
2019-02-28T02:10:21.834Z,6.46
2019-02-28T02:11:21.413Z,6.41
2019-02-28T02:12:21.395Z,6.40
2019-02-28T02:13:21.386Z,6.41
2019-02-28T02:14:21.373Z,6.33
2019-02-28T02:15:21.361Z,6.26
2019-02-28T02:16:26.766Z,6.10
2019-02-28T02:17:22.341Z,6.16
2019-02-28T02:18:21.332Z,6.36
2019-02-28T02:19:21.321Z,6.33
2019-02-28T02:20:23.484Z,6.38
2019-02-28T02:21:21.307Z,6.30
2019-02-28T02:22:21.288Z,6.29
2019-02-28T02:23:21.276Z,6.25
2019-02-28T02:24:21.264Z,6.11
2019-02-28T02:25:21.256Z,6.01
2019-02-28T02:26:21.251Z,6.04
2019-02-28T02:27:21.232Z,6.00
2019-02-28T02:28:21.223Z,5.86
2019-02-28T02:29:21.212Z,5.88
2019-02-28T02:30:21.214Z,5.82
2019-02-28T02:31:27.273Z,5.82
2019-02-28T02:32:22.185Z,5.77
2019-02-28T02:33:21.201Z,5.83
2019-02-28T02:34:24.417Z,5.78
2019-02-28T02:35:22.146Z,5.75
2019-02-28T02:36:21.167Z,5.73
2019-02-28T02:37:21.160Z,5.68
2019-02-28T02:38:21.118Z,5.67
2019-02-28T02:39:21.103Z,5.63
2019-02-28T02:40:23.093Z,5.53
2019-02-28T02:41:21.109Z,5.55
2019-02-28T02:42:21.073Z,5.57
2019-02-28T02:43:21.957Z,5.55
2019-02-28T02:44:21.050Z,5.52
2019-02-28T02:45:21.043Z,5.59
2019-02-28T02:46:21.422Z,5.57
2019-02-28T02:47:21.027Z,5.56
2019-02-28T02:48:21.005Z,5.46
2019-02-28T02:49:20.996Z,5.50
2019-02-28T02:50:20.985Z,5.52
2019-02-28T02:51:20.979Z,5.41
2019-02-28T02:52:25.889Z,5.48
2019-02-28T02:53:21.951Z,5.63
2019-02-28T02:54:20.942Z,5.59
2019-02-28T02:55:27.715Z,5.49
2019-02-28T02:56:21.931Z,5.48
2019-02-28T02:57:20.918Z,5.50
2019-02-28T02:58:26.909Z,5.49
2019-02-28T02:59:21.885Z,5.50
2019-02-28T03:00:20.875Z,5.56
2019-02-28T03:01:23.131Z,5.48
2019-02-28T03:02:20.863Z,5.50
2019-02-28T03:03:20.844Z,5.49
2019-02-28T03:04:23.036Z,5.53
2019-02-28T03:05:20.822Z,5.60
2019-02-28T03:06:20.840Z,5.73
2019-02-28T03:07:24.584Z,5.67
2019-02-28T03:08:20.794Z,5.70
2019-02-28T03:09:20.780Z,5.70
2019-02-28T03:10:20.768Z,5.68
2019-02-28T03:11:24.791Z,5.75
2019-02-28T03:12:21.756Z,5.75
2019-02-28T03:13:20.737Z,5.82
2019-02-28T03:14:20.731Z,5.81
2019-02-28T03:15:27.030Z,5.81
2019-02-28T03:16:21.702Z,5.83
2019-02-28T03:17:20.706Z,5.82
2019-02-28T03:18:21.786Z,5.70
2019-02-28T03:19:20.672Z,5.95
2019-02-28T03:20:20.660Z,5.88
2019-02-28T03:21:20.652Z,5.89
2019-02-28T03:22:28.318Z,5.88
2019-02-28T03:23:21.628Z,5.93
2019-02-28T03:24:20.617Z,5.81
2019-02-28T03:25:27.728Z,5.89
2019-02-28T03:26:21.597Z,5.78
2019-02-28T03:27:20.594Z,5.68
2019-02-28T03:28:20.576Z,5.73
2019-02-28T03:29:20.568Z,5.67
2019-02-28T03:30:29.226Z,5.73
2019-02-28T03:31:21.570Z,5.70
2019-02-28T03:32:20.540Z,5.73
2019-02-28T03:33:27.172Z,5.71
2019-02-28T03:34:21.512Z,5.75
2019-02-28T03:35:20.516Z,5.64
2019-02-28T03:36:20.501Z,5.74
2019-02-28T03:37:20.489Z,5.73
2019-02-28T03:38:20.466Z,5.59
2019-02-28T03:39:24.031Z,5.59
2019-02-28T03:40:21.445Z,5.43
2019-02-28T03:41:20.434Z,5.45
2019-02-28T03:42:20.433Z,5.48
2019-02-28T03:43:20.412Z,5.46
2019-02-28T03:44:21.840Z,5.43
2019-02-28T03:45:20.394Z,5.34
2019-02-28T03:46:20.382Z,5.28
2019-02-28T03:47:23.905Z,5.27
2019-02-28T03:48:20.358Z,5.34
2019-02-28T03:49:20.359Z,5.22
2019-02-28T03:50:21.984Z,5.23
2019-02-28T03:51:20.327Z,5.22
2019-02-28T03:52:20.325Z,5.22
2019-02-28T03:53:21.097Z,5.34
2019-02-28T03:54:20.297Z,5.27
2019-02-28T03:55:20.284Z,5.32
2019-02-28T03:56:20.275Z,5.25
2019-02-28T03:57:24.202Z,5.22
2019-02-28T03:58:21.263Z,5.09
2019-02-28T03:59:20.284Z,5.10
2019-02-28T04:00:20.243Z,5.19
2019-02-28T04:01:20.219Z,5.12
2019-02-28T04:02:22.174Z,5.09
2019-02-28T04:03:20.200Z,4.95
2019-02-28T04:04:20.189Z,4.98
2019-02-28T04:05:26.414Z,5.05
2019-02-28T04:06:21.164Z,5.02
2019-02-28T04:07:20.164Z,5.05
2019-02-28T04:08:20.142Z,5.09
2019-02-28T04:09:20.131Z,5.07
2019-02-28T04:10:22.002Z,4.96
2019-02-28T04:11:20.111Z,4.95
2019-02-28T04:12:20.108Z,4.91
2019-02-28T04:13:20.455Z,5.02
2019-02-28T04:14:20.076Z,5.04
2019-02-28T04:15:20.085Z,5.01
2019-02-28T04:16:20.055Z,4.98
2019-02-28T04:17:20.063Z,4.94
2019-02-28T04:18:20.040Z,5.01
2019-02-28T04:19:22.725Z,5.02
2019-02-28T04:20:20.011Z,4.96
2019-02-28T04:21:20.005Z,5.12
2019-02-28T04:22:23.083Z,5.22
2019-02-28T04:23:19.979Z,5.22
2019-02-28T04:24:19.968Z,5.20
2019-02-28T04:25:24.102Z,5.32
2019-02-28T04:26:19.952Z,5.27
2019-02-28T04:27:19.946Z,5.25
2019-02-28T04:28:19.924Z,5.22
2019-02-28T04:29:19.927Z,5.20
2019-02-28T04:30:19.902Z,5.27
2019-02-28T04:31:20.326Z,5.28
2019-02-28T04:32:26.591Z,5.30
2019-02-28T04:33:20.884Z,5.30
2019-02-28T04:34:19.858Z,5.38
2019-02-28T04:35:24.290Z,5.49
2019-02-28T04:36:20.838Z,5.38
2019-02-28T04:37:19.836Z,5.45
2019-02-28T04:38:20.711Z,5.45
2019-02-28T04:39:22.752Z,5.46
2019-02-28T04:40:19.794Z,5.46
2019-02-28T04:41:19.784Z,5.59
2019-02-28T04:42:19.778Z,5.88
2019-02-28T04:43:19.761Z,5.95
2019-02-28T04:44:19.753Z,6.03
2019-02-28T04:45:19.740Z,6.13
2019-02-28T04:46:19.727Z,6.33
2019-02-28T04:47:19.718Z,6.58
2019-02-28T04:48:19.715Z,6.66
2019-02-28T04:49:22.669Z,6.98
2019-02-28T04:50:19.684Z,6.86
2019-02-28T04:51:19.675Z,6.77
2019-02-28T04:52:19.663Z,6.54
2019-02-28T04:53:20.128Z,6.44
2019-02-28T04:54:19.645Z,6.26
2019-02-28T04:55:19.631Z,6.13
2019-02-28T04:56:19.619Z,5.95
2019-02-28T04:57:20.774Z,5.91
2019-02-28T04:58:22.441Z,5.82
2019-02-28T04:59:20.586Z,5.75
2019-02-28T05:00:19.580Z,5.81
2019-02-28T05:01:19.567Z,5.71
2019-02-28T05:02:20.604Z,5.68
2019-02-28T05:03:19.556Z,5.73
2019-02-28T05:04:19.535Z,5.77
2019-02-28T05:05:19.525Z,5.74
2019-02-28T05:06:21.162Z,5.77
2019-02-28T05:07:19.505Z,5.77
2019-02-28T05:08:19.498Z,5.68
2019-02-28T05:09:19.481Z,5.66
2019-02-28T05:10:22.408Z,5.59
2019-02-28T05:11:19.459Z,5.63
2019-02-28T05:12:19.447Z,5.73
2019-02-28T05:13:19.446Z,5.67
2019-02-28T05:14:23.367Z,5.78
2019-02-28T05:15:19.414Z,5.88
2019-02-28T05:16:19.405Z,5.83
2019-02-28T05:17:22.303Z,5.88
2019-02-28T05:18:19.391Z,5.82
2019-02-28T05:19:19.376Z,5.81
2019-02-28T05:20:19.361Z,5.85
2019-02-28T05:21:19.647Z,5.78
2019-02-28T05:22:19.338Z,5.77
2019-02-28T05:23:19.337Z,5.78
2019-02-28T05:24:19.316Z,5.73
2019-02-28T05:25:19.306Z,5.60
2019-02-28T05:26:19.295Z,5.57
2019-02-28T05:27:19.284Z,5.50
2019-02-28T05:28:19.289Z,5.49
2019-02-28T05:29:19.263Z,5.45
2019-02-28T05:30:19.824Z,5.45
2019-02-28T05:31:19.239Z,5.41
2019-02-28T05:32:19.232Z,5.43
2019-02-28T05:33:19.228Z,5.41
2019-02-28T05:34:19.211Z,5.35
2019-02-28T05:35:19.209Z,5.30
2019-02-28T05:36:19.191Z,5.35
2019-02-28T05:37:19.175Z,5.43
2019-02-28T05:38:21.243Z,5.45
2019-02-28T05:39:19.153Z,5.50
2019-02-28T05:40:19.142Z,5.52
2019-02-28T05:41:19.133Z,5.49
2019-02-28T05:42:20.235Z,5.45
2019-02-28T05:43:19.118Z,5.41
2019-02-28T05:44:21.240Z,5.48
2019-02-28T05:45:19.087Z,5.55
2019-02-28T05:46:20.375Z,5.49
2019-02-28T05:47:19.066Z,5.46
2019-02-28T05:48:19.087Z,5.37
2019-02-28T05:49:19.043Z,5.35
2019-02-28T05:50:19.032Z,5.34
2019-02-28T05:51:19.023Z,5.34
2019-02-28T05:52:19.014Z,5.41
2019-02-28T05:53:19.013Z,5.49
2019-02-28T05:54:18.990Z,5.56
2019-02-28T05:55:24.471Z,5.59
2019-02-28T05:56:19.968Z,5.64
2019-02-28T05:57:18.957Z,5.63
2019-02-28T05:58:20.861Z,5.57
2019-02-28T05:59:18.940Z,5.57
2019-02-28T06:00:18.925Z,5.50
2019-02-28T06:01:18.915Z,5.50
2019-02-28T06:02:22.300Z,5.48
2019-02-28T06:03:18.899Z,5.48
2019-02-28T06:04:18.882Z,5.63
2019-02-28T06:05:18.876Z,5.55
2019-02-28T06:06:20.171Z,5.60
2019-02-28T06:07:18.847Z,5.60
2019-02-28T06:08:18.844Z,5.59
2019-02-28T06:09:18.830Z,5.49
2019-02-28T06:10:23.477Z,5.63
2019-02-28T06:11:19.803Z,5.52
2019-02-28T06:12:18.793Z,5.57
2019-02-28T06:13:18.972Z,5.52
2019-02-28T06:14:18.771Z,5.52
2019-02-28T06:15:18.764Z,5.50
2019-02-28T06:16:18.750Z,5.48
2019-02-28T06:17:20.793Z,5.41
2019-02-28T06:18:18.735Z,5.43
2019-02-28T06:19:20.279Z,5.35
2019-02-28T06:20:18.706Z,5.25
2019-02-28T06:21:18.694Z,5.20
2019-02-28T06:22:18.685Z,5.22
2019-02-28T06:23:18.684Z,5.19
2019-02-28T06:24:18.662Z,5.14
2019-02-28T06:25:23.648Z,5.09
2019-02-28T06:26:19.646Z,5.13
2019-02-28T06:27:18.631Z,5.09
2019-02-28T06:28:18.645Z,5.10
2019-02-28T06:29:18.608Z,5.13
2019-02-28T06:30:18.600Z,5.27
2019-02-28T06:31:18.586Z,5.28
2019-02-28T06:32:23.116Z,5.25
2019-02-28T06:33:21.213Z,5.30
2019-02-28T06:34:18.555Z,5.25
2019-02-28T06:35:20.363Z,5.25
2019-02-28T06:36:18.536Z,5.37
2019-02-28T06:37:18.521Z,5.45
2019-02-28T06:38:19.191Z,5.57
2019-02-28T06:39:18.499Z,5.59
2019-02-28T06:40:18.487Z,5.53
2019-02-28T06:41:18.477Z,5.67
2019-02-28T06:42:18.467Z,5.67
2019-02-28T06:43:19.501Z,5.74
2019-02-28T06:44:18.445Z,5.78
2019-02-28T06:45:18.434Z,5.85
2019-02-28T06:46:18.424Z,5.93
2019-02-28T06:47:18.414Z,5.88
2019-02-28T06:48:20.405Z,5.93
2019-02-28T06:49:19.390Z,5.88
2019-02-28T06:50:18.381Z,5.96
2019-02-28T06:51:18.369Z,5.95
2019-02-28T06:52:18.359Z,5.95
2019-02-28T06:53:18.347Z,6.10
2019-02-28T06:54:18.346Z,6.00
2019-02-28T06:55:18.327Z,6.09
2019-02-28T06:56:21.895Z,6.10
2019-02-28T06:57:18.304Z,6.29
2019-02-28T06:58:18.295Z,6.33
2019-02-28T06:59:18.295Z,6.32
2019-02-28T07:00:18.274Z,6.33
2019-02-28T07:01:19.273Z,6.30
2019-02-28T07:02:18.250Z,6.35
2019-02-28T07:03:18.242Z,6.36
2019-02-28T07:04:18.240Z,6.51
2019-02-28T07:05:18.221Z,6.58
2019-02-28T07:06:18.208Z,6.62
2019-02-28T07:07:18.201Z,6.66
2019-02-28T07:08:24.262Z,6.66
2019-02-28T07:09:19.189Z,6.69
2019-02-28T07:10:18.175Z,6.79
2019-02-28T07:11:19.870Z,6.79
2019-02-28T07:12:18.159Z,6.77
2019-02-28T07:13:18.133Z,6.90
2019-02-28T07:14:18.136Z,6.87
2019-02-28T07:15:23.621Z,6.91
2019-02-28T07:16:19.103Z,6.98
2019-02-28T07:17:18.091Z,7.07
2019-02-28T07:18:18.807Z,7.12
2019-02-28T07:19:18.075Z,7.23
2019-02-28T07:20:18.060Z,7.23
2019-02-28T07:21:18.046Z,7.29
2019-02-28T07:22:19.662Z,7.35
2019-02-28T07:23:18.025Z,7.37
2019-02-28T07:24:18.044Z,7.37
2019-02-28T07:25:18.004Z,7.34
2019-02-28T07:26:18.706Z,7.41
2019-02-28T07:27:17.982Z,7.31
2019-02-28T07:28:17.968Z,7.44
2019-02-28T07:29:17.966Z,7.45
2019-02-28T07:30:19.222Z,7.62
2019-02-28T07:31:17.937Z,7.77
2019-02-28T07:32:17.925Z,7.77
2019-02-28T07:33:17.915Z,7.90
2019-02-28T07:34:21.942Z,7.79
2019-02-28T07:35:18.897Z,7.78
2019-02-28T07:36:17.884Z,7.72
2019-02-28T07:37:18.889Z,7.72
2019-02-28T07:38:17.863Z,7.82
2019-02-28T07:39:17.857Z,7.89
2019-02-28T07:40:17.839Z,7.89
2019-02-28T07:41:17.830Z,7.81
2019-02-28T07:42:17.817Z,7.77
2019-02-28T07:43:17.815Z,7.92
2019-02-28T07:44:21.094Z,7.93
2019-02-28T07:45:17.783Z,7.97
2019-02-28T07:46:17.775Z,7.87
2019-02-28T07:47:18.414Z,7.94
2019-02-28T07:48:17.753Z,8.07
2019-02-28T07:49:17.751Z,8.07
2019-02-28T07:50:17.736Z,8.17
2019-02-28T07:51:18.379Z,8.17
2019-02-28T07:52:17.708Z,8.14
2019-02-28T07:53:17.700Z,8.08
2019-02-28T07:54:17.698Z,8.00
2019-02-28T07:55:17.679Z,8.11
2019-02-28T07:56:17.664Z,8.20
2019-02-28T07:57:17.998Z,8.18
2019-02-28T07:58:17.643Z,8.28
2019-02-28T07:59:17.640Z,8.18
2019-02-28T08:00:18.667Z,8.14
2019-02-28T08:01:18.435Z,8.00
2019-02-28T08:02:17.598Z,7.90
2019-02-28T08:03:17.587Z,8.08
2019-02-28T08:04:18.398Z,8.14
2019-02-28T08:05:17.569Z,8.11
2019-02-28T08:06:17.555Z,8.03
2019-02-28T08:07:17.547Z,8.10
2019-02-28T08:08:17.538Z,8.03
2019-02-28T08:09:17.537Z,8.10
2019-02-28T08:10:17.512Z,8.04
2019-02-28T08:11:19.927Z,8.11
2019-02-28T08:12:17.494Z,8.20
2019-02-28T08:13:17.480Z,8.15
2019-02-28T08:14:17.476Z,8.25
2019-02-28T08:15:21.058Z,8.28
2019-02-28T08:16:17.449Z,8.29
2019-02-28T08:17:17.441Z,8.40
2019-02-28T08:18:18.926Z,8.47
2019-02-28T08:19:17.427Z,8.58
2019-02-28T08:20:17.403Z,8.71
2019-02-28T08:21:17.395Z,8.76
2019-02-28T08:22:23.358Z,8.84
2019-02-28T08:23:18.372Z,8.75
2019-02-28T08:24:17.372Z,8.75
2019-02-28T08:25:17.352Z,8.78
2019-02-28T08:26:18.784Z,8.71
2019-02-28T08:27:17.330Z,8.73
2019-02-28T08:28:17.319Z,8.65
2019-02-28T08:29:17.317Z,8.60
2019-02-28T08:30:19.597Z,8.58
2019-02-28T08:31:17.288Z,8.62
2019-02-28T08:32:17.276Z,8.75
2019-02-28T08:33:17.270Z,8.75
2019-02-28T08:34:17.265Z,8.75
2019-02-28T08:35:17.250Z,8.87
2019-02-28T08:36:17.234Z,8.88
2019-02-28T08:37:18.995Z,8.91
2019-02-28T08:38:17.218Z,8.96
2019-02-28T08:39:17.230Z,8.93
2019-02-28T08:40:17.200Z,8.91
2019-02-28T08:41:17.188Z,9.01
2019-02-28T08:42:17.171Z,9.06
2019-02-28T08:43:26.658Z,9.05
2019-02-28T08:44:22.743Z,9.23
2019-02-28T08:45:18.136Z,9.31
2019-02-28T08:46:17.128Z,9.38
2019-02-28T08:47:17.918Z,9.45
2019-02-28T08:48:17.103Z,9.57
2019-02-28T08:49:17.094Z,9.56
2019-02-28T08:50:20.639Z,9.58
2019-02-28T08:51:18.073Z,9.64
2019-02-28T08:52:17.059Z,9.78
2019-02-28T08:53:17.051Z,9.75
2019-02-28T08:54:17.039Z,9.76
2019-02-28T08:55:17.033Z,9.73
2019-02-28T08:56:17.013Z,9.73
2019-02-28T08:57:17.005Z,10.00
2019-02-28T08:58:16.993Z,10.07
2019-02-28T08:59:20.456Z,10.00
2019-02-28T09:00:17.980Z,9.94
2019-02-28T09:01:16.961Z,9.94
2019-02-28T09:02:18.172Z,9.96
2019-02-28T09:03:16.938Z,9.96
2019-02-28T09:04:16.929Z,9.85
2019-02-28T09:05:16.923Z,9.79
2019-02-28T09:06:16.904Z,9.78
2019-02-28T09:07:16.891Z,9.71
2019-02-28T09:08:16.883Z,9.78
2019-02-28T09:09:16.870Z,9.83
2019-02-28T09:10:16.873Z,9.94
2019-02-28T09:11:20.664Z,9.96
2019-02-28T09:12:16.835Z,10.00
2019-02-28T09:13:16.826Z,10.04
2019-02-28T09:14:17.822Z,10.21
2019-02-28T09:15:16.810Z,10.15
2019-02-28T09:16:16.791Z,10.03
2019-02-28T09:17:18.594Z,10.09
2019-02-28T09:18:16.769Z,10.19
2019-02-28T09:19:16.757Z,10.12
2019-02-28T09:20:16.756Z,10.10
2019-02-28T09:21:18.371Z,10.22
2019-02-28T09:22:16.724Z,10.06
2019-02-28T09:23:16.718Z,10.06
2019-02-28T09:24:16.704Z,10.06
2019-02-28T09:25:21.571Z,10.21
2019-02-28T09:26:17.682Z,10.07
2019-02-28T09:27:16.668Z,10.15
2019-02-28T09:28:16.657Z,10.18
2019-02-28T09:29:18.358Z,10.07
2019-02-28T09:30:16.643Z,10.15
2019-02-28T09:31:16.626Z,10.14
2019-02-28T09:32:17.579Z,10.00
2019-02-28T09:33:19.329Z,10.06
2019-02-28T09:34:17.591Z,10.12
2019-02-28T09:35:16.591Z,10.12
2019-02-28T09:36:20.360Z,10.14
2019-02-28T09:37:16.568Z,10.21
2019-02-28T09:38:16.554Z,10.18
2019-02-28T09:39:19.412Z,10.28
2019-02-28T09:40:16.540Z,10.30
2019-02-28T09:41:16.516Z,10.32
2019-02-28T09:42:16.504Z,10.43
2019-02-28T09:43:16.496Z,10.43
2019-02-28T09:44:16.491Z,10.46
2019-02-28T09:45:16.482Z,10.51
2019-02-28T09:46:16.491Z,10.58
2019-02-28T09:47:16.451Z,10.58
2019-02-28T09:48:16.444Z,10.56
2019-02-28T09:49:16.429Z,10.62
2019-02-28T09:50:19.305Z,10.63
2019-02-28T09:51:17.407Z,10.66
2019-02-28T09:52:16.396Z,10.53
2019-02-28T09:53:16.759Z,10.58
2019-02-28T09:54:16.372Z,10.56
2019-02-28T09:55:16.374Z,10.70
2019-02-28T09:56:16.353Z,10.78
2019-02-28T09:57:18.932Z,10.62
2019-02-28T09:58:16.329Z,10.60
2019-02-28T09:59:16.317Z,10.58
2019-02-28T10:00:16.315Z,10.63
2019-02-28T10:01:16.350Z,10.74
2019-02-28T10:02:16.284Z,10.81
2019-02-28T10:03:18.602Z,10.84
2019-02-28T10:04:16.264Z,10.88
2019-02-28T10:05:16.262Z,10.95
2019-02-28T10:06:16.576Z,10.95
2019-02-28T10:07:16.231Z,11.07
2019-02-28T10:08:16.217Z,11.01
2019-02-28T10:09:17.738Z,11.01
2019-02-28T10:10:17.407Z,10.84
2019-02-28T10:11:16.182Z,10.92
2019-02-28T10:12:16.171Z,10.94
2019-02-28T10:13:18.259Z,10.91
2019-02-28T10:14:16.149Z,10.98
2019-02-28T10:15:16.146Z,11.10
2019-02-28T10:16:16.797Z,11.10
2019-02-28T10:17:16.115Z,11.03
2019-02-28T10:18:16.109Z,11.02
2019-02-28T10:19:16.096Z,10.98
2019-02-28T10:20:16.494Z,11.09
2019-02-28T10:21:16.070Z,11.21
2019-02-28T10:22:16.065Z,11.21
2019-02-28T10:23:18.455Z,11.20
2019-02-28T10:24:17.034Z,11.34
2019-02-28T10:25:16.039Z,11.28
2019-02-28T10:26:17.247Z,11.34
2019-02-28T10:27:16.003Z,11.34
2019-02-28T10:28:15.992Z,11.28
2019-02-28T10:29:15.990Z,11.21
2019-02-28T10:30:16.750Z,11.17
2019-02-28T10:31:15.967Z,11.25
2019-02-28T10:32:15.947Z,11.13
2019-02-28T10:33:17.367Z,11.20
2019-02-28T10:34:15.927Z,11.29
2019-02-28T10:35:15.917Z,11.32
2019-02-28T10:36:15.911Z,11.41
2019-02-28T10:37:15.890Z,11.32
2019-02-28T10:38:15.880Z,11.19
2019-02-28T10:39:15.885Z,11.21
2019-02-28T10:40:17.930Z,11.17
2019-02-28T10:41:15.856Z,11.21
2019-02-28T10:42:15.836Z,11.24
2019-02-28T10:43:16.468Z,11.21
2019-02-28T10:44:15.812Z,11.31
2019-02-28T10:45:15.801Z,11.34
2019-02-28T10:46:16.917Z,11.32
2019-02-28T10:47:15.780Z,11.41
2019-02-28T10:48:15.768Z,11.34
2019-02-28T10:49:16.873Z,11.46
2019-02-28T10:50:15.748Z,11.57
2019-02-28T10:51:15.745Z,11.64
2019-02-28T10:52:15.730Z,11.59
2019-02-28T10:53:15.712Z,11.57
2019-02-28T10:54:15.701Z,11.61
2019-02-28T10:55:15.693Z,11.74
2019-02-28T10:56:15.693Z,11.64
2019-02-28T10:57:15.668Z,11.64
2019-02-28T10:58:16.225Z,11.61
2019-02-28T10:59:15.645Z,11.68
2019-02-28T11:00:15.636Z,11.70
2019-02-28T11:01:15.635Z,11.80
2019-02-28T11:02:18.984Z,11.82
2019-02-28T11:03:15.602Z,11.83
2019-02-28T11:04:15.589Z,11.90
2019-02-28T11:05:18.760Z,11.85
2019-02-28T11:06:15.576Z,11.77
2019-02-28T11:07:15.559Z,11.89
2019-02-28T11:08:17.418Z,11.85
2019-02-28T11:09:18.380Z,11.80
2019-02-28T11:10:16.524Z,11.68
2019-02-28T11:11:15.526Z,11.72
2019-02-28T11:12:19.769Z,11.80
2019-02-28T11:13:15.494Z,11.86
2019-02-28T11:14:15.483Z,11.82
2019-02-28T11:15:15.476Z,11.82
2019-02-28T11:16:15.468Z,11.78
2019-02-28T11:17:15.448Z,11.72
2019-02-28T11:18:15.436Z,11.67
2019-02-28T11:19:18.689Z,11.78
2019-02-28T11:20:22.206Z,11.77
2019-02-28T11:21:16.411Z,11.71
2019-02-28T11:22:15.401Z,11.61
2019-02-28T11:23:15.950Z,11.72
2019-02-28T11:24:15.375Z,11.72
2019-02-28T11:25:15.370Z,11.71
2019-02-28T11:26:15.355Z,11.89
2019-02-28T11:27:16.090Z,11.74
2019-02-28T11:28:15.335Z,11.75
2019-02-28T11:29:15.319Z,11.82
2019-02-28T11:30:15.313Z,11.90
2019-02-28T11:31:16.312Z,11.97
2019-02-28T11:32:15.290Z,12.01
2019-02-28T11:33:15.281Z,11.97
2019-02-28T11:34:15.936Z,11.94
2019-02-28T11:35:15.249Z,11.90
2019-02-28T11:36:15.249Z,11.90
2019-02-28T11:37:15.231Z,12.01
2019-02-28T11:38:20.494Z,11.97
2019-02-28T11:39:16.207Z,12.12
2019-02-28T11:40:15.198Z,12.05
2019-02-28T11:41:15.559Z,12.12
2019-02-28T11:42:15.180Z,12.08
2019-02-28T11:43:15.163Z,12.13
2019-02-28T11:44:15.155Z,12.04
2019-02-28T11:45:15.141Z,12.12
2019-02-28T11:46:15.139Z,11.99
2019-02-28T11:47:15.119Z,11.96
2019-02-28T11:48:18.760Z,11.94
2019-02-28T11:49:15.097Z,11.87
2019-02-28T11:50:15.094Z,11.96
2019-02-28T11:51:17.625Z,11.96
2019-02-28T11:52:15.992Z,12.16
2019-02-28T11:53:15.051Z,12.05
2019-02-28T11:54:15.044Z,12.15
2019-02-28T11:55:16.786Z,12.02
2019-02-28T11:56:16.031Z,12.13
2019-02-28T11:57:15.013Z,12.20
2019-02-28T11:58:17.629Z,12.16
2019-02-28T11:59:14.987Z,12.15
2019-02-28T12:00:14.991Z,12.21
2019-02-28T12:01:14.993Z,12.23
2019-02-28T12:02:14.954Z,12.30
2019-02-28T12:03:14.946Z,12.15
2019-02-28T12:04:14.932Z,12.20
2019-02-28T12:05:15.678Z,12.37
2019-02-28T12:06:14.924Z,12.13
2019-02-28T12:07:14.903Z,12.21
2019-02-28T12:08:14.892Z,12.13
2019-02-28T12:09:16.352Z,12.34
2019-02-28T12:10:14.869Z,12.42
2019-02-28T12:11:14.887Z,12.31
2019-02-28T12:12:14.846Z,12.41
2019-02-28T12:13:16.515Z,12.34
2019-02-28T12:14:14.830Z,12.30
2019-02-28T12:15:14.825Z,12.42
2019-02-28T12:16:16.301Z,12.44
2019-02-28T12:17:15.154Z,12.52
2019-02-28T12:18:14.786Z,12.51
2019-02-28T12:19:15.937Z,12.51
2019-02-28T12:20:14.759Z,12.56
2019-02-28T12:21:14.749Z,12.59
2019-02-28T12:22:14.748Z,12.48
2019-02-28T12:23:14.729Z,12.59
2019-02-28T12:24:14.715Z,12.64
2019-02-28T12:25:14.709Z,12.57
2019-02-28T12:26:17.772Z,12.71
2019-02-28T12:27:14.691Z,12.64
2019-02-28T12:28:14.675Z,12.62
2019-02-28T12:29:14.660Z,12.66
2019-02-28T12:30:14.651Z,12.57
2019-02-28T12:31:14.647Z,12.60
2019-02-28T12:32:14.636Z,12.45
2019-02-28T12:33:15.355Z,12.51
2019-02-28T12:34:15.190Z,12.59
2019-02-28T12:35:14.599Z,12.66
2019-02-28T12:36:15.290Z,12.66
2019-02-28T12:37:14.611Z,12.70
2019-02-28T12:38:14.564Z,12.69
2019-02-28T12:39:14.553Z,12.70
2019-02-28T12:40:14.541Z,12.74
2019-02-28T12:41:14.531Z,12.74
2019-02-28T12:42:14.528Z,12.79
2019-02-28T12:43:14.508Z,12.81
2019-02-28T12:44:15.471Z,12.79
2019-02-28T12:45:14.487Z,12.82
2019-02-28T12:46:14.478Z,12.84
2019-02-28T12:47:14.473Z,12.85
2019-02-28T12:48:14.699Z,12.82
2019-02-28T12:49:14.451Z,12.75
2019-02-28T12:50:14.432Z,12.75
2019-02-28T12:51:14.423Z,12.74
2019-02-28T12:52:15.480Z,12.75
2019-02-28T12:53:14.400Z,12.74
2019-02-28T12:54:14.393Z,12.77
2019-02-28T12:55:14.381Z,12.85
2019-02-28T12:56:14.961Z,12.87
2019-02-28T12:57:14.368Z,12.81
2019-02-28T12:58:14.350Z,12.84
2019-02-28T12:59:14.336Z,12.95
2019-02-28T13:00:14.326Z,12.95
2019-02-28T13:01:14.313Z,12.96
2019-02-28T13:02:14.317Z,12.81
2019-02-28T13:03:19.224Z,12.66
2019-02-28T13:04:15.282Z,12.57
2019-02-28T13:05:15.893Z,12.57
2019-02-28T13:06:14.259Z,12.52
2019-02-28T13:07:14.258Z,12.49
2019-02-28T13:08:14.239Z,12.42
2019-02-28T13:09:16.887Z,12.41
2019-02-28T13:10:14.222Z,12.33